createdAt,value
2019-03-29T00:01:59.746Z,100722.88
2019-03-29T00:04:32.372Z,100725.98
2019-03-29T00:07:03.954Z,100725.58
2019-03-29T00:09:39.911Z,100726.62
2019-03-29T00:12:09.632Z,100719.84
2019-03-29T00:14:46.133Z,100724.27
2019-03-29T00:17:17.960Z,100725.13
2019-03-29T00:19:48.104Z,100724.20
2019-03-29T00:22:20.019Z,100727.25
2019-03-29T00:24:50.562Z,100720.58
2019-03-29T00:27:22.351Z,100726.11
2019-03-29T00:29:52.116Z,100723.29
2019-03-29T00:32:23.949Z,100720.88
2019-03-29T00:34:53.706Z,100719.73
2019-03-29T00:37:25.778Z,100715.31
2019-03-29T00:39:58.967Z,100711.81
2019-03-29T00:42:30.771Z,100718.64
2019-03-29T00:45:02.612Z,100715.58
2019-03-29T00:47:33.169Z,100715.58
2019-03-29T00:50:05.341Z,100710.82
2019-03-29T00:52:35.153Z,100709.60
2019-03-29T00:55:05.114Z,100711.33
2019-03-29T00:57:35.964Z,100708.18
2019-03-29T01:00:07.301Z,100707.93
2019-03-29T01:02:37.381Z,100711.50
2019-03-29T01:05:09.415Z,100711.03
2019-03-29T01:07:42.198Z,100712.06
2019-03-29T01:10:12.719Z,100710.23
2019-03-29T01:12:43.629Z,100710.30
2019-03-29T01:15:13.829Z,100712.47
2019-03-29T01:17:49.435Z,100706.61
2019-03-29T01:20:21.199Z,100707.36
2019-03-29T01:22:51.824Z,100702.75
2019-03-29T01:25:27.797Z,100704.98
2019-03-29T01:28:00.670Z,100693.98
2019-03-29T01:30:30.937Z,100699.47
2019-03-29T01:33:00.957Z,100703.02
2019-03-29T01:35:30.967Z,100699.47
2019-03-29T01:38:04.410Z,100692.88
2019-03-29T01:40:35.590Z,100697.02
2019-03-29T01:43:06.587Z,100696.33
2019-03-29T01:45:36.845Z,100697.23
2019-03-29T01:48:07.400Z,100693.28
2019-03-29T01:50:37.695Z,100691.50
2019-03-29T01:53:11.907Z,100693.28
2019-03-29T01:55:42.516Z,100691.45
2019-03-29T01:58:14.057Z,100691.41
2019-03-29T02:00:46.820Z,100690.64
2019-03-29T02:03:16.848Z,100686.12
2019-03-29T02:05:50.390Z,100685.50
2019-03-29T02:08:34.870Z,100677.02
2019-03-29T02:10:54.861Z,100682.56
2019-03-29T02:13:26.091Z,100674.37
2019-03-29T02:15:57.428Z,100679.19
2019-03-29T02:18:28.637Z,100670.28
2019-03-29T02:20:58.700Z,100671.55
2019-03-29T02:23:31.552Z,100665.30
2019-03-29T02:26:03.814Z,100667.58
2019-03-29T02:28:33.905Z,100665.40
2019-03-29T02:31:06.154Z,100660.87
2019-03-29T02:33:36.459Z,100661.05
2019-03-29T02:36:07.112Z,100658.74
2019-03-29T02:38:54.066Z,100657.95
2019-03-29T02:41:11.124Z,100660.98
2019-03-29T02:43:41.650Z,100657.83
2019-03-29T02:46:13.140Z,100660.92
2019-03-29T02:48:46.075Z,100655.03
2019-03-29T02:51:17.969Z,100653.70
2019-03-29T02:53:47.793Z,100651.79
2019-03-29T02:56:19.127Z,100644.56
2019-03-29T02:58:49.166Z,100650.02
2019-03-29T03:01:21.254Z,100652.09
2019-03-29T03:03:51.370Z,100654.96
2019-03-29T03:06:22.038Z,100652.55
2019-03-29T03:08:52.577Z,100649.80
2019-03-29T03:11:25.742Z,100656.56
2019-03-29T03:13:56.722Z,100650.09
2019-03-29T03:16:26.703Z,100647.15
2019-03-29T03:18:58.282Z,100648.23
2019-03-29T03:21:28.307Z,100640.89
2019-03-29T03:24:00.501Z,100640.20
2019-03-29T03:26:34.724Z,100640.91
2019-03-29T03:29:13.270Z,100629.86
2019-03-29T03:31:45.328Z,100630.96
2019-03-29T03:34:17.647Z,100632.23
2019-03-29T03:36:49.021Z,100631.98
2019-03-29T03:39:31.613Z,100631.53
2019-03-29T03:41:55.751Z,100629.59
2019-03-29T03:44:27.767Z,100625.79
2019-03-29T03:46:59.303Z,100624.47
2019-03-29T03:49:29.864Z,100629.34
2019-03-29T03:52:00.182Z,100622.09
2019-03-29T03:54:31.318Z,100619.75
2019-03-29T03:57:03.647Z,100614.17
2019-03-29T03:59:34.141Z,100617.05
2019-03-29T04:02:06.103Z,100621.47
2019-03-29T04:04:38.197Z,100617.22
2019-03-29T04:07:09.361Z,100614.92
2019-03-29T04:09:49.842Z,100611.42
2019-03-29T04:12:13.251Z,100614.92
2019-03-29T04:14:45.183Z,100617.09
2019-03-29T04:17:17.504Z,100614.38
2019-03-29T04:19:47.574Z,100614.73
2019-03-29T04:22:17.341Z,100611.46
2019-03-29T04:24:47.307Z,100611.87
2019-03-29T04:27:17.692Z,100614.22
2019-03-29T04:29:49.216Z,100616.13
2019-03-29T04:32:23.284Z,100613.09
2019-03-29T04:34:53.662Z,100609.34
2019-03-29T04:37:24.064Z,100611.78
2019-03-29T04:40:06.875Z,100615.08
2019-03-29T04:42:28.922Z,100614.58
2019-03-29T04:44:59.947Z,100618.16
2019-03-29T04:47:30.133Z,100619.30
2019-03-29T04:50:01.644Z,100620.95
2019-03-29T04:52:31.837Z,100623.25
2019-03-29T04:55:04.283Z,100622.73
2019-03-29T04:57:35.273Z,100623.41
2019-03-29T05:00:06.040Z,100618.83
2019-03-29T05:02:38.964Z,100617.70
2019-03-29T05:05:14.653Z,100619.83
2019-03-29T05:07:46.997Z,100624.81
2019-03-29T05:10:21.452Z,100622.07
2019-03-29T05:12:49.534Z,100622.93
2019-03-29T05:15:19.486Z,100626.09
2019-03-29T05:17:49.280Z,100622.58
2019-03-29T05:20:20.072Z,100621.83
2019-03-29T05:22:50.617Z,100617.75
2019-03-29T05:25:20.352Z,100620.64
2019-03-29T05:27:50.175Z,100619.80
2019-03-29T05:30:19.893Z,100625.06
2019-03-29T05:32:49.827Z,100622.66
2019-03-29T05:35:20.350Z,100625.80
2019-03-29T05:37:50.314Z,100630.89
2019-03-29T05:40:34.005Z,100624.34
2019-03-29T05:42:52.867Z,100622.33
2019-03-29T05:45:22.668Z,100627.76
2019-03-29T05:47:52.468Z,100619.34
2019-03-29T05:50:22.200Z,100626.89
2019-03-29T05:52:53.149Z,100621.69
2019-03-29T05:55:32.364Z,100619.09
2019-03-29T05:57:56.050Z,100620.88
2019-03-29T06:00:29.650Z,100622.58
2019-03-29T06:03:00.349Z,100626.84
2019-03-29T06:05:32.647Z,100631.95
2019-03-29T06:08:03.492Z,100633.03
2019-03-29T06:10:47.928Z,100627.25
2019-03-29T06:13:07.526Z,100635.00
2019-03-29T06:15:37.639Z,100633.80
2019-03-29T06:18:08.089Z,100638.45
2019-03-29T06:20:38.634Z,100637.59
2019-03-29T06:23:08.540Z,100636.80
2019-03-29T06:25:42.521Z,100635.71
2019-03-29T06:28:12.437Z,100631.08
2019-03-29T06:30:42.574Z,100632.68
2019-03-29T06:33:12.343Z,100634.25
2019-03-29T06:35:45.524Z,100627.02
2019-03-29T06:38:16.630Z,100628.18
2019-03-29T06:40:46.628Z,100627.27
2019-03-29T06:43:18.622Z,100624.94
2019-03-29T06:45:49.501Z,100631.81
2019-03-29T06:48:20.358Z,100625.05
2019-03-29T06:50:50.611Z,100620.34
2019-03-29T06:53:20.781Z,100626.89
2019-03-29T06:55:50.771Z,100630.48
2019-03-29T06:58:21.373Z,100628.41
2019-03-29T07:00:52.321Z,100624.73
2019-03-29T07:03:22.524Z,100629.30
2019-03-29T07:05:53.841Z,100622.34
2019-03-29T07:08:23.965Z,100623.63
2019-03-29T07:10:54.180Z,100625.03
2019-03-29T07:13:26.451Z,100622.99
2019-03-29T07:15:59.826Z,100621.41
2019-03-29T07:18:31.599Z,100620.03
2019-03-29T07:21:04.172Z,100618.50
2019-03-29T07:23:34.640Z,100624.46
2019-03-29T07:26:05.962Z,100618.38
2019-03-29T07:28:35.563Z,100622.07
2019-03-29T07:31:06.212Z,100613.39
2019-03-29T07:33:36.186Z,100610.56
2019-03-29T07:36:06.159Z,100610.61
2019-03-29T07:38:37.020Z,100605.45
2019-03-29T07:41:07.133Z,100609.23
2019-03-29T07:43:38.334Z,100605.48
2019-03-29T07:46:15.951Z,100608.73
2019-03-29T07:48:45.741Z,100602.13
2019-03-29T07:51:16.340Z,100603.71
2019-03-29T07:53:46.434Z,100604.34
2019-03-29T07:56:16.834Z,100602.67
2019-03-29T07:58:48.065Z,100598.98
2019-03-29T08:01:17.876Z,100608.48
2019-03-29T08:03:51.086Z,100592.88
2019-03-29T08:06:24.436Z,100598.39
2019-03-29T08:08:55.719Z,100602.53
2019-03-29T08:11:27.699Z,100600.28
2019-03-29T08:13:59.324Z,100602.64
2019-03-29T08:16:29.455Z,100602.50
2019-03-29T08:18:59.206Z,100598.83
2019-03-29T08:21:28.949Z,100598.90
2019-03-29T08:23:58.719Z,100605.66
2019-03-29T08:26:28.699Z,100610.27
2019-03-29T08:28:58.813Z,100606.98
2019-03-29T08:31:28.834Z,100604.55
2019-03-29T08:33:59.587Z,100598.47
2019-03-29T08:36:30.014Z,100604.05
2019-03-29T08:39:00.072Z,100602.31
2019-03-29T08:41:34.640Z,100598.72
2019-03-29T08:44:04.615Z,100592.02
2019-03-29T08:46:36.290Z,100600.45
2019-03-29T08:49:06.044Z,100590.66
2019-03-29T08:51:35.795Z,100592.19
2019-03-29T08:54:05.804Z,100586.64
2019-03-29T08:56:37.584Z,100585.86
2019-03-29T08:59:07.363Z,100588.84
2019-03-29T09:01:38.118Z,100589.37
2019-03-29T09:04:13.038Z,100587.33
2019-03-29T09:06:53.439Z,100586.09
2019-03-29T09:09:16.002Z,100586.27
2019-03-29T09:11:46.044Z,100578.53
2019-03-29T09:14:21.490Z,100576.35
2019-03-29T09:16:51.398Z,100570.25
2019-03-29T09:19:21.709Z,100565.94
2019-03-29T09:21:52.078Z,100562.41
2019-03-29T09:24:22.777Z,100560.91
2019-03-29T09:26:55.071Z,100556.72
2019-03-29T09:29:26.869Z,100558.89
2019-03-29T09:31:57.235Z,100544.98
2019-03-29T09:34:28.954Z,100547.72
2019-03-29T09:37:00.371Z,100548.53
2019-03-29T09:39:30.140Z,100544.95
2019-03-29T09:42:00.566Z,100547.42
2019-03-29T09:44:30.591Z,100543.23
2019-03-29T09:47:00.366Z,100549.03
2019-03-29T09:49:30.086Z,100538.82
2019-03-29T09:51:59.832Z,100543.27
2019-03-29T09:54:30.148Z,100529.80
2019-03-29T09:56:59.911Z,100532.91
2019-03-29T09:59:30.884Z,100523.18
2019-03-29T10:02:01.322Z,100525.94
2019-03-29T10:04:31.502Z,100523.64
2019-03-29T10:07:01.776Z,100523.30
2019-03-29T10:09:31.616Z,100525.52
2019-03-29T10:12:01.474Z,100524.03
2019-03-29T10:14:33.458Z,100522.46
2019-03-29T10:17:04.130Z,100521.90
2019-03-29T10:19:35.362Z,100514.19
2019-03-29T10:22:07.556Z,100518.00
2019-03-29T10:24:39.282Z,100517.61
2019-03-29T10:27:09.789Z,100513.97
2019-03-29T10:29:43.920Z,100508.30
2019-03-29T10:32:19.072Z,100509.80
2019-03-29T10:34:49.534Z,100505.87
2019-03-29T10:37:21.727Z,100502.50
2019-03-29T10:39:52.932Z,100501.27
2019-03-29T10:42:25.602Z,100494.70
2019-03-29T10:44:55.918Z,100484.05
2019-03-29T10:47:42.562Z,100483.75
2019-03-29T10:49:58.209Z,100475.02
2019-03-29T10:52:31.307Z,100473.83
2019-03-29T10:55:01.442Z,100473.56
2019-03-29T10:57:31.506Z,100468.50
2019-03-29T11:00:05.593Z,100469.42
2019-03-29T11:02:37.273Z,100466.30
2019-03-29T11:05:07.287Z,100453.39
2019-03-29T11:07:38.528Z,100456.41
2019-03-29T11:10:08.917Z,100448.27
2019-03-29T11:12:38.676Z,100454.20
2019-03-29T11:15:09.562Z,100451.27
2019-03-29T11:17:40.626Z,100448.95
2019-03-29T11:20:10.915Z,100446.72
2019-03-29T11:22:41.437Z,100446.92
2019-03-29T11:25:11.963Z,100440.91
2019-03-29T11:27:41.718Z,100438.67
2019-03-29T11:30:11.464Z,100427.48
2019-03-29T11:32:41.765Z,100431.02
2019-03-29T11:35:11.731Z,100431.11
2019-03-29T11:37:42.290Z,100429.06
2019-03-29T11:40:14.020Z,100419.14
2019-03-29T11:42:47.154Z,100421.75
2019-03-29T11:45:18.112Z,100416.63
2019-03-29T11:47:49.161Z,100420.09
2019-03-29T11:50:20.280Z,100414.58
2019-03-29T11:52:50.432Z,100411.77
2019-03-29T11:55:22.476Z,100402.53
2019-03-29T11:57:57.968Z,100408.75
2019-03-29T12:00:39.606Z,100399.16
2019-03-29T12:03:11.548Z,100401.97
2019-03-29T12:05:42.677Z,100393.19
2019-03-29T12:08:13.016Z,100386.69
2019-03-29T12:10:44.150Z,100385.09
2019-03-29T12:13:19.316Z,100382.87
2019-03-29T12:15:50.057Z,100372.72
2019-03-29T12:18:21.837Z,100376.30
2019-03-29T12:20:54.535Z,100375.87
2019-03-29T12:23:24.602Z,100371.78
2019-03-29T12:25:54.366Z,100364.70
2019-03-29T12:28:25.568Z,100369.55
2019-03-29T12:30:56.816Z,100361.12
2019-03-29T12:33:28.733Z,100363.22
2019-03-29T12:35:59.371Z,100358.47
2019-03-29T12:38:29.911Z,100342.44
2019-03-29T12:41:01.620Z,100341.59
2019-03-29T12:43:31.525Z,100341.09
2019-03-29T12:46:02.053Z,100332.16
2019-03-29T12:48:31.843Z,100330.78
2019-03-29T12:51:02.504Z,100325.05
2019-03-29T12:53:34.620Z,100331.77
2019-03-29T12:56:10.248Z,100319.05
2019-03-29T12:58:40.779Z,100319.44
2019-03-29T13:01:11.778Z,100323.50
2019-03-29T13:03:45.014Z,100318.47
2019-03-29T13:06:24.085Z,100313.39
2019-03-29T13:08:55.943Z,100311.19
2019-03-29T13:11:27.824Z,100305.97
2019-03-29T13:14:09.606Z,100302.48
2019-03-29T13:16:33.178Z,100295.69
2019-03-29T13:19:04.093Z,100297.75
2019-03-29T13:21:38.772Z,100293.00
2019-03-29T13:24:08.941Z,100287.75
2019-03-29T13:26:39.557Z,100281.34
2019-03-29T13:29:12.776Z,100275.67
2019-03-29T13:31:46.521Z,100266.42
2019-03-29T13:34:16.599Z,100267.56
2019-03-29T13:36:48.003Z,100263.59
2019-03-29T13:39:18.368Z,100254.39
2019-03-29T13:41:49.979Z,100250.63
2019-03-29T13:44:24.465Z,100251.45
2019-03-29T13:46:55.654Z,100251.83
2019-03-29T13:49:27.020Z,100248.14
2019-03-29T13:51:57.939Z,100244.61
2019-03-29T13:54:34.788Z,100238.83
2019-03-29T13:57:05.485Z,100235.64
2019-03-29T13:59:37.951Z,100234.27
2019-03-29T14:02:09.059Z,100229.30
2019-03-29T14:04:39.274Z,100225.38
2019-03-29T14:07:11.817Z,100230.05
2019-03-29T14:09:43.325Z,100216.25
2019-03-29T14:12:13.575Z,100210.03
2019-03-29T14:14:43.827Z,100209.02
2019-03-29T14:17:14.286Z,100207.45
2019-03-29T14:19:44.846Z,100201.22
2019-03-29T14:22:14.926Z,100197.75
2019-03-29T14:24:45.561Z,100192.96
2019-03-29T14:27:16.263Z,100192.80
2019-03-29T14:29:47.756Z,100185.44
2019-03-29T14:32:17.619Z,100180.13
2019-03-29T14:34:54.272Z,100175.63
2019-03-29T14:37:28.207Z,100172.02
2019-03-29T14:39:58.304Z,100173.05
2019-03-29T14:42:29.082Z,100167.28
2019-03-29T14:44:59.595Z,100150.30
2019-03-29T14:47:41.213Z,100151.27
2019-03-29T14:50:00.799Z,100151.27
2019-03-29T14:52:30.965Z,100147.20
2019-03-29T14:55:03.470Z,100148.73
2019-03-29T14:57:34.131Z,100144.03
2019-03-29T15:00:04.064Z,100130.88
2019-03-29T15:02:35.320Z,100142.06
2019-03-29T15:05:06.966Z,100137.83
2019-03-29T15:07:41.843Z,100131.98
2019-03-29T15:10:25.602Z,100126.02
2019-03-29T15:12:55.693Z,100129.57
2019-03-29T15:15:25.434Z,100118.40
2019-03-29T15:17:55.284Z,100117.59
2019-03-29T15:20:25.427Z,100121.65
2019-03-29T15:22:55.405Z,100111.77
2019-03-29T15:25:25.142Z,100115.55
2019-03-29T15:27:56.824Z,100116.08
2019-03-29T15:30:26.653Z,100109.95
2019-03-29T15:32:56.412Z,100103.86
2019-03-29T15:35:28.797Z,100104.53
2019-03-29T15:37:59.163Z,100099.95
2019-03-29T15:40:29.721Z,100096.72
2019-03-29T15:43:01.115Z,100087.39
2019-03-29T15:45:31.259Z,100089.09
2019-03-29T15:48:01.787Z,100085.45
2019-03-29T15:50:31.923Z,100087.47
2019-03-29T15:53:06.442Z,100084.12
2019-03-29T15:55:37.680Z,100086.62
2019-03-29T15:58:09.571Z,100092.48
2019-03-29T16:00:39.923Z,100083.44
2019-03-29T16:03:10.678Z,100088.42
2019-03-29T16:05:41.735Z,100084.87
2019-03-29T16:08:11.782Z,100080.80
2019-03-29T16:10:49.051Z,100075.17
2019-03-29T16:13:19.197Z,100072.06
2019-03-29T16:15:49.236Z,100071.63
2019-03-29T16:18:19.157Z,100071.66
2019-03-29T16:20:50.327Z,100060.77
2019-03-29T16:23:21.203Z,100064.95
2019-03-29T16:25:52.477Z,100063.09
2019-03-29T16:28:22.249Z,100060.94
2019-03-29T16:30:51.974Z,100059.62
2019-03-29T16:33:22.885Z,100051.75
2019-03-29T16:35:54.567Z,100055.58
2019-03-29T16:38:26.388Z,100052.34
2019-03-29T16:40:58.994Z,100054.08
2019-03-29T16:43:29.029Z,100052.91
2019-03-29T16:46:00.174Z,100050.68
2019-03-29T16:48:32.757Z,100060.23
2019-03-29T16:51:04.500Z,100062.98
2019-03-29T16:53:39.801Z,100054.54
2019-03-29T16:56:12.140Z,100060.45
2019-03-29T16:58:44.287Z,100059.55
2019-03-29T17:01:16.206Z,100060.56
2019-03-29T17:03:45.951Z,100062.25
2019-03-29T17:06:19.305Z,100060.40
2019-03-29T17:08:50.193Z,100055.89
2019-03-29T17:11:22.011Z,100051.81
2019-03-29T17:13:51.730Z,100059.86
2019-03-29T17:16:30.195Z,100050.42
2019-03-29T17:18:53.570Z,100051.13
2019-03-29T17:21:24.081Z,100057.34
2019-03-29T17:23:53.956Z,100058.08
2019-03-29T17:26:23.718Z,100058.58
2019-03-29T17:28:53.450Z,100061.00
2019-03-29T17:31:24.005Z,100054.27
2019-03-29T17:33:56.065Z,100054.16
2019-03-29T17:36:26.651Z,100047.59
2019-03-29T17:38:56.761Z,100046.12
2019-03-29T17:41:27.441Z,100048.82
2019-03-29T17:43:57.245Z,100058.16
2019-03-29T17:46:27.312Z,100058.16
2019-03-29T17:48:58.671Z,100056.98
2019-03-29T17:51:30.818Z,100057.52
2019-03-29T17:54:01.914Z,100054.47
2019-03-29T17:56:31.687Z,100054.69
2019-03-29T17:59:02.620Z,100052.99
2019-03-29T18:01:32.401Z,100048.70
2019-03-29T18:04:02.134Z,100051.59
2019-03-29T18:06:31.873Z,100053.25
2019-03-29T18:09:01.608Z,100061.22
2019-03-29T18:11:33.253Z,100055.16
2019-03-29T18:14:02.996Z,100061.86
2019-03-29T18:16:33.391Z,100059.45
2019-03-29T18:19:03.457Z,100071.36
2019-03-29T18:21:34.403Z,100071.44
2019-03-29T18:24:04.428Z,100067.41
2019-03-29T18:26:34.590Z,100067.73
2019-03-29T18:29:05.707Z,100065.70
2019-03-29T18:31:37.565Z,100071.02
2019-03-29T18:34:07.429Z,100070.56
2019-03-29T18:36:39.579Z,100065.53
2019-03-29T18:39:21.646Z,100064.33
2019-03-29T18:41:53.555Z,100063.80
2019-03-29T18:44:23.628Z,100067.63
2019-03-29T18:46:55.358Z,100066.95
2019-03-29T18:49:26.595Z,100069.03
2019-03-29T18:51:57.772Z,100064.29
2019-03-29T18:54:28.834Z,100070.63
2019-03-29T18:56:58.599Z,100067.27
2019-03-29T18:59:29.137Z,100062.57
2019-03-29T19:01:59.035Z,100064.76
2019-03-29T19:04:31.447Z,100062.98
2019-03-29T19:07:04.764Z,100065.97
2019-03-29T19:09:35.316Z,100062.39
2019-03-29T19:12:05.836Z,100065.02
2019-03-29T19:14:35.938Z,100069.05
2019-03-29T19:17:06.175Z,100063.73
2019-03-29T19:19:36.187Z,100060.45
2019-03-29T19:22:06.572Z,100067.61
2019-03-29T19:24:38.543Z,100067.72
2019-03-29T19:27:09.889Z,100061.82
2019-03-29T19:29:40.569Z,100074.83
2019-03-29T19:32:11.173Z,100064.00
2019-03-29T19:34:42.011Z,100075.97
2019-03-29T19:37:12.804Z,100064.09
2019-03-29T19:39:45.811Z,100062.34
2019-03-29T19:42:16.897Z,100066.02
2019-03-29T19:44:47.238Z,100065.80
2019-03-29T19:47:17.274Z,100056.91
2019-03-29T19:49:47.402Z,100064.68
2019-03-29T19:52:17.745Z,100059.45
2019-03-29T19:54:48.111Z,100062.77
2019-03-29T19:57:17.850Z,100059.25
2019-03-29T19:59:48.802Z,100059.66
2019-03-29T20:02:19.512Z,100058.80
2019-03-29T20:04:49.231Z,100056.98
2019-03-29T20:07:21.819Z,100060.02
2019-03-29T20:09:51.928Z,100067.52
2019-03-29T20:12:25.269Z,100066.05
2019-03-29T20:14:55.503Z,100064.89
2019-03-29T20:17:27.618Z,100060.11
2019-03-29T20:19:57.500Z,100061.89
2019-03-29T20:22:27.244Z,100070.00
2019-03-29T20:24:57.393Z,100069.34
2019-03-29T20:27:28.281Z,100064.06
2019-03-29T20:29:58.810Z,100064.25
2019-03-29T20:32:28.546Z,100058.74
2019-03-29T20:34:58.574Z,100056.76
2019-03-29T20:37:28.434Z,100048.60
2019-03-29T20:39:59.815Z,100047.13
2019-03-29T20:42:29.597Z,100050.69
2019-03-29T20:45:02.637Z,100046.36
2019-03-29T20:47:41.940Z,100048.94
2019-03-29T20:50:06.350Z,100045.46
2019-03-29T20:52:38.281Z,100044.11
2019-03-29T20:55:09.342Z,100043.81
2019-03-29T20:57:42.095Z,100050.75
2019-03-29T21:00:15.134Z,100047.52
2019-03-29T21:02:44.965Z,100045.45
2019-03-29T21:05:15.752Z,100047.27
2019-03-29T21:07:49.686Z,100045.52
2019-03-29T21:10:20.503Z,100046.72
2019-03-29T21:12:52.396Z,100044.78
2019-03-29T21:15:23.165Z,100040.14
2019-03-29T21:18:03.935Z,100041.70
2019-03-29T21:20:33.996Z,100038.96
2019-03-29T21:23:04.529Z,100041.09
2019-03-29T21:25:34.479Z,100036.59
2019-03-29T21:28:05.939Z,100035.60
2019-03-29T21:30:36.899Z,100035.84
2019-03-29T21:33:08.379Z,100038.35
2019-03-29T21:35:38.140Z,100044.04
2019-03-29T21:38:09.174Z,100037.81
2019-03-29T21:40:38.939Z,100033.32
2019-03-29T21:43:08.938Z,100029.95
2019-03-29T21:45:40.264Z,100034.17
2019-03-29T21:48:28.070Z,100033.92
2019-03-29T21:50:43.739Z,100031.14
2019-03-29T21:53:14.193Z,100029.39
2019-03-29T21:55:45.632Z,100025.92
2019-03-29T21:58:16.836Z,100029.72
2019-03-29T22:00:46.978Z,100032.45
2019-03-29T22:03:17.027Z,100028.23
2019-03-29T22:05:47.629Z,100018.50
2019-03-29T22:08:18.629Z,100023.56
2019-03-29T22:10:50.467Z,100020.49
2019-03-29T22:13:21.874Z,100018.48
2019-03-29T22:15:52.952Z,100022.11
2019-03-29T22:18:36.854Z,100021.67
2019-03-29T22:20:54.580Z,100014.92
2019-03-29T22:23:27.108Z,100017.98
2019-03-29T22:25:57.812Z,100015.29
2019-03-29T22:28:27.719Z,100012.80
2019-03-29T22:30:57.749Z,100015.78
2019-03-29T22:33:28.185Z,100011.81
2019-03-29T22:36:02.012Z,100006.83
2019-03-29T22:38:32.063Z,100005.79
2019-03-29T22:41:02.382Z,100005.52
2019-03-29T22:43:33.164Z,100007.89
2019-03-29T22:46:04.228Z,100008.28
2019-03-29T22:48:51.332Z,99998.75
2019-03-29T22:51:10.955Z,100001.79
2019-03-29T22:53:41.093Z,99994.74
2019-03-29T22:56:10.828Z,99991.70
2019-03-29T22:58:41.961Z,99995.48
2019-03-29T23:01:12.038Z,99990.86
2019-03-29T23:03:42.533Z,99983.86
2019-03-29T23:06:13.234Z,99979.30
2019-03-29T23:08:43.065Z,99984.70
2019-03-29T23:11:15.163Z,99977.61
2019-03-29T23:13:47.274Z,99977.00
2019-03-29T23:16:17.370Z,99962.27
2019-03-29T23:18:47.499Z,99971.50
2019-03-29T23:21:17.800Z,99970.83
2019-03-29T23:23:47.890Z,99967.88
2019-03-29T23:26:19.264Z,99963.80
2019-03-29T23:28:50.732Z,99952.48
2019-03-29T23:31:21.630Z,99952.14
2019-03-29T23:33:51.406Z,99953.84
2019-03-29T23:36:21.132Z,99945.39
2019-03-29T23:38:51.984Z,99948.89
2019-03-29T23:41:22.370Z,99943.30
2019-03-29T23:43:53.209Z,99939.66
2019-03-29T23:46:25.579Z,99935.75
2019-03-29T23:48:55.736Z,99936.68
2019-03-29T23:51:26.320Z,99938.31
2019-03-29T23:53:57.475Z,99931.45
2019-03-29T23:56:29.158Z,99931.25
2019-03-29T23:59:00.471Z,99926.97
